sensor_id;sensor_type;location;lat;lon;timestamp;temperature;humidity
69901;DHT22;57183;50.930;5.406;2023-04-01T00:00:53;10.00;99.90
69901;DHT22;57183;50.930;5.406;2023-04-01T00:03:20;10.00;99.90
69901;DHT22;57183;50.930;5.406;2023-04-01T00:05:46;10.00;99.90
69901;DHT22;57183;50.930;5.406;2023-04-01T00:08:12;9.90;99.90
69901;DHT22;57183;50.930;5.406;2023-04-01T00:10:38;9.90;99.90
69901;DHT22;57183;50.930;5.406;2023-04-01T00:13:04;9.90;99.90
69901;DHT22;57183;50.930;5.406;2023-04-01T00:15:30;9.90;99.90
69901;DHT22;57183;50.930;5.406;2023-04-01T00:17:55;9.90;99.90
69901;DHT22;57183;50.930;5.406;2023-04-01T00:20:21;9.90;99.90
69901;DHT22;57183;50.930;5.406;2023-04-01T00:22:47;9.90;99.90
69901;DHT22;57183;50.930;5.406;2023-04-01T00:25:13;9.90;99.90
69901;DHT22;57183;50.930;5.406;2023-04-01T00:27:39;9.90;99.90
69901;DHT22;57183;50.930;5.406;2023-04-01T00:30:05;9.90;99.90
69901;DHT22;57183;50.930;5.406;2023-04-01T00:32:31;9.90;99.90
69901;DHT22;57183;50.930;5.406;2023-04-01T00:34:57;9.90;99.90
69901;DHT22;57183;50.930;5.406;2023-04-01T00:37:25;10.00;99.90
69901;DHT22;57183;50.930;5.406;2023-04-01T00:39:51;10.00;99.90
69901;DHT22;57183;50.930;5.406;2023-04-01T00:42:16;9.90;99.90
69901;DHT22;57183;50.930;5.406;2023-04-01T00:44:45;10.00;99.90
69901;DHT22;57183;50.930;5.406;2023-04-01T00:47:12;10.00;99.90
69901;DHT22;57183;50.930;5.406;2023-04-01T00:49:45;10.00;99.90
69901;DHT22;57183;50.930;5.406;2023-04-01T00:52:15;10.00;99.90
69901;DHT22;57183;50.930;5.406;2023-04-01T00:54:46;9.90;99.90
69901;DHT22;57183;50.930;5.406;2023-04-01T00:59:45;9.90;99.90
69901;DHT22;57183;50.930;5.406;2023-04-01T01:02:14;10.00;99.90
69901;DHT22;57183;50.930;5.406;2023-04-01T01:04:40;10.00;99.90
69901;DHT22;57183;50.930;5.406;2023-04-01T01:07:10;9.90;99.90
69901;DHT22;57183;50.930;5.406;2023-04-01T01:15:12;9.90;99.90
69901;DHT22;57183;50.930;5.406;2023-04-01T01:35:24;10.00;99.90
69901;DHT22;57183;50.930;5.406;2023-04-01T01:37:29;9.90;99.90
69901;DHT22;57183;50.930;5.406;2023-04-01T01:39:59;9.90;99.90
69901;DHT22;57183;50.930;5.406;2023-04-01T01:42:27;9.90;99.90
69901;DHT22;57183;50.930;5.406;2023-04-01T01:44:55;9.90;99.90
69901;DHT22;57183;50.930;5.406;2023-04-01T01:47:23;9.90;99.90
69901;DHT22;57183;50.930;5.406;2023-04-01T01:49:51;9.90;99.90
69901;DHT22;57183;50.930;5.406;2023-04-01T01:52:18;9.80;99.90
69901;DHT22;57183;50.930;5.406;2023-04-01T01:54:52;9.90;99.90
69901;DHT22;57183;50.930;5.406;2023-04-01T01:57:28;9.90;99.90
69901;DHT22;57183;50.930;5.406;2023-04-01T01:59:58;9.80;99.90
69901;DHT22;57183;50.930;5.406;2023-04-01T02:02:26;9.90;99.90
69901;DHT22;57183;50.930;5.406;2023-04-01T02:04:57;9.90;99.90
69901;DHT22;57183;50.930;5.406;2023-04-01T02:07:31;9.80;99.90
69901;DHT22;57183;50.930;5.406;2023-04-01T02:09:58;9.90;99.90
69901;DHT22;57183;50.930;5.406;2023-04-01T02:12:24;9.90;99.90
69901;DHT22;57183;50.930;5.406;2023-04-01T02:14:55;9.90;99.90
69901;DHT22;57183;50.930;5.406;2023-04-01T02:17:25;9.90;99.90
69901;DHT22;57183;50.930;5.406;2023-04-01T02:19:57;9.90;99.90
69901;DHT22;57183;50.930;5.406;2023-04-01T02:22:27;9.80;99.90
69901;DHT22;57183;50.930;5.406;2023-04-01T02:24:57;9.90;99.90
69901;DHT22;57183;50.930;5.406;2023-04-01T02:27:24;9.90;99.90
69901;DHT22;57183;50.930;5.406;2023-04-01T02:29:51;9.90;99.90
69901;DHT22;57183;50.930;5.406;2023-04-01T02:32:18;9.90;99.90
69901;DHT22;57183;50.930;5.406;2023-04-01T02:34:45;9.90;99.90
69901;DHT22;57183;50.930;5.406;2023-04-01T02:37:11;9.90;99.90
69901;DHT22;57183;50.930;5.406;2023-04-01T02:39:38;9.80;99.90
69901;DHT22;57183;50.930;5.406;2023-04-01T02:42:04;9.80;99.90
69901;DHT22;57183;50.930;5.406;2023-04-01T02:44:30;9.80;99.90
69901;DHT22;57183;50.930;5.406;2023-04-01T02:46:55;9.90;99.90
69901;DHT22;57183;50.930;5.406;2023-04-01T02:49:21;9.90;99.90
69901;DHT22;57183;50.930;5.406;2023-04-01T02:51:47;10.00;99.90
69901;DHT22;57183;50.930;5.406;2023-04-01T02:54:12;9.90;99.90
69901;DHT22;57183;50.930;5.406;2023-04-01T02:56:38;10.00;99.90
69901;DHT22;57183;50.930;5.406;2023-04-01T02:59:04;10.00;99.90
69901;DHT22;57183;50.930;5.406;2023-04-01T03:01:30;9.90;99.90
69901;DHT22;57183;50.930;5.406;2023-04-01T03:03:55;10.00;99.90
69901;DHT22;57183;50.930;5.406;2023-04-01T03:06:21;10.00;99.90
69901;DHT22;57183;50.930;5.406;2023-04-01T03:08:47;9.90;99.90
69901;DHT22;57183;50.930;5.406;2023-04-01T03:11:13;9.90;99.90
69901;DHT22;57183;50.930;5.406;2023-04-01T03:13:39;9.90;99.90
69901;DHT22;57183;50.930;5.406;2023-04-01T03:16:04;9.90;99.90
69901;DHT22;57183;50.930;5.406;2023-04-01T03:18:30;9.90;99.90
69901;DHT22;57183;50.930;5.406;2023-04-01T03:20:56;9.90;99.90
69901;DHT22;57183;50.930;5.406;2023-04-01T03:23:22;9.80;99.90
69901;DHT22;57183;50.930;5.406;2023-04-01T03:25:49;9.80;99.90
69901;DHT22;57183;50.930;5.406;2023-04-01T03:28:15;9.70;99.90
69901;DHT22;57183;50.930;5.406;2023-04-01T03:30:41;9.70;99.90
69901;DHT22;57183;50.930;5.406;2023-04-01T03:33:07;9.70;99.90
69901;DHT22;57183;50.930;5.406;2023-04-01T03:35:33;9.60;99.90
69901;DHT22;57183;50.930;5.406;2023-04-01T03:38:01;9.70;99.90
69901;DHT22;57183;50.930;5.406;2023-04-01T03:40:26;9.70;99.90
69901;DHT22;57183;50.930;5.406;2023-04-01T03:42:52;9.70;99.90
69901;DHT22;57183;50.930;5.406;2023-04-01T03:45:18;9.80;99.90
69901;DHT22;57183;50.930;5.406;2023-04-01T03:47:44;9.80;99.90
69901;DHT22;57183;50.930;5.406;2023-04-01T03:50:10;9.80;99.90
69901;DHT22;57183;50.930;5.406;2023-04-01T03:52:36;9.80;99.90
69901;DHT22;57183;50.930;5.406;2023-04-01T03:55:02;9.80;99.90
69901;DHT22;57183;50.930;5.406;2023-04-01T03:57:27;9.70;99.90
69901;DHT22;57183;50.930;5.406;2023-04-01T03:59:53;9.70;99.90
69901;DHT22;57183;50.930;5.406;2023-04-01T04:02:19;9.70;99.90
69901;DHT22;57183;50.930;5.406;2023-04-01T04:04:45;9.70;99.90
69901;DHT22;57183;50.930;5.406;2023-04-01T04:07:12;9.70;99.90
69901;DHT22;57183;50.930;5.406;2023-04-01T04:09:37;9.70;99.90
69901;DHT22;57183;50.930;5.406;2023-04-01T04:12:03;9.60;99.90
69901;DHT22;57183;50.930;5.406;2023-04-01T04:14:31;9.60;99.90
69901;DHT22;57183;50.930;5.406;2023-04-01T04:16:57;9.70;99.90
69901;DHT22;57183;50.930;5.406;2023-04-01T04:19:22;9.60;99.90
69901;DHT22;57183;50.930;5.406;2023-04-01T04:21:48;9.60;99.90
69901;DHT22;57183;50.930;5.406;2023-04-01T04:24:14;9.60;99.90
69901;DHT22;57183;50.930;5.406;2023-04-01T04:26:39;9.60;99.90
69901;DHT22;57183;50.930;5.406;2023-04-01T04:29:05;9.60;99.90
69901;DHT22;57183;50.930;5.406;2023-04-01T04:31:31;9.60;99.90
69901;DHT22;57183;50.930;5.406;2023-04-01T04:33:59;9.60;99.90
69901;DHT22;57183;50.930;5.406;2023-04-01T04:36:26;9.60;99.90
69901;DHT22;57183;50.930;5.406;2023-04-01T04:38:51;9.60;99.90
69901;DHT22;57183;50.930;5.406;2023-04-01T04:41:18;9.60;99.90
69901;DHT22;57183;50.930;5.406;2023-04-01T04:43:53;9.50;99.90
69901;DHT22;57183;50.930;5.406;2023-04-01T04:46:19;9.50;99.90
69901;DHT22;57183;50.930;5.406;2023-04-01T04:48:45;9.50;99.90
69901;DHT22;57183;50.930;5.406;2023-04-01T04:51:16;9.50;99.90
69901;DHT22;57183;50.930;5.406;2023-04-01T04:53:42;9.50;99.90
69901;DHT22;57183;50.930;5.406;2023-04-01T04:56:08;9.60;99.90
69901;DHT22;57183;50.930;5.406;2023-04-01T04:58:34;9.60;99.90
69901;DHT22;57183;50.930;5.406;2023-04-01T05:01:06;9.60;99.90
69901;DHT22;57183;50.930;5.406;2023-04-01T05:03:32;9.60;99.90
69901;DHT22;57183;50.930;5.406;2023-04-01T05:05:58;9.60;99.90
69901;DHT22;57183;50.930;5.406;2023-04-01T05:08:24;9.50;99.90
69901;DHT22;57183;50.930;5.406;2023-04-01T05:10:49;9.60;99.90
69901;DHT22;57183;50.930;5.406;2023-04-01T05:13:15;9.50;99.90
69901;DHT22;57183;50.930;5.406;2023-04-01T05:15:41;9.50;99.90
69901;DHT22;57183;50.930;5.406;2023-04-01T05:18:07;9.50;99.90
69901;DHT22;57183;50.930;5.406;2023-04-01T05:20:32;9.60;99.90
69901;DHT22;57183;50.930;5.406;2023-04-01T05:22:59;9.60;99.90
69901;DHT22;57183;50.930;5.406;2023-04-01T05:25:25;9.50;99.90
69901;DHT22;57183;50.930;5.406;2023-04-01T05:27:51;9.60;99.90
69901;DHT22;57183;50.930;5.406;2023-04-01T05:30:17;9.50;99.90
69901;DHT22;57183;50.930;5.406;2023-04-01T05:32:43;9.60;99.90
69901;DHT22;57183;50.930;5.406;2023-04-01T05:35:09;9.60;99.90
69901;DHT22;57183;50.930;5.406;2023-04-01T05:37:36;9.60;99.90
69901;DHT22;57183;50.930;5.406;2023-04-01T05:40:02;9.60;99.90
69901;DHT22;57183;50.930;5.406;2023-04-01T05:42:28;9.60;99.90
69901;DHT22;57183;50.930;5.406;2023-04-01T05:44:54;9.50;99.90
69901;DHT22;57183;50.930;5.406;2023-04-01T05:47:21;9.60;99.90
69901;DHT22;57183;50.930;5.406;2023-04-01T05:49:47;9.50;99.90
69901;DHT22;57183;50.930;5.406;2023-04-01T05:52:13;9.60;99.90
69901;DHT22;57183;50.930;5.406;2023-04-01T05:54:39;9.60;99.90
69901;DHT22;57183;50.930;5.406;2023-04-01T05:57:04;9.60;99.90
69901;DHT22;57183;50.930;5.406;2023-04-01T05:59:30;9.50;99.90
69901;DHT22;57183;50.930;5.406;2023-04-01T06:01:57;9.50;99.90
69901;DHT22;57183;50.930;5.406;2023-04-01T06:04:23;9.60;99.90
69901;DHT22;57183;50.930;5.406;2023-04-01T06:06:49;9.50;99.90
69901;DHT22;57183;50.930;5.406;2023-04-01T06:09:19;9.50;99.90
69901;DHT22;57183;50.930;5.406;2023-04-01T06:12:17;9.60;99.90
69901;DHT22;57183;50.930;5.406;2023-04-01T06:15:00;9.50;99.90
69901;DHT22;57183;50.930;5.406;2023-04-01T06:18:20;9.60;99.90
69901;DHT22;57183;50.930;5.406;2023-04-01T06:26:59;9.60;99.90
69901;DHT22;57183;50.930;5.406;2023-04-01T06:49:17;9.60;99.90
69901;DHT22;57183;50.930;5.406;2023-04-01T06:51:51;9.60;99.90
69901;DHT22;57183;50.930;5.406;2023-04-01T06:54:23;9.50;99.90
69901;DHT22;57183;50.930;5.406;2023-04-01T06:56:54;9.60;99.90
69901;DHT22;57183;50.930;5.406;2023-04-01T06:59:30;9.50;99.90
69901;DHT22;57183;50.930;5.406;2023-04-01T07:04:57;9.60;99.90
69901;DHT22;57183;50.930;5.406;2023-04-01T07:07:38;9.60;99.90
69901;DHT22;57183;50.930;5.406;2023-04-01T07:11:28;9.60;99.90
69901;DHT22;57183;50.930;5.406;2023-04-01T07:14:09;9.50;99.90
69901;DHT22;57183;50.930;5.406;2023-04-01T07:16:33;9.60;99.90
69901;DHT22;57183;50.930;5.406;2023-04-01T07:19:04;9.60;99.90
69901;DHT22;57183;50.930;5.406;2023-04-01T07:21:44;9.60;99.90
69901;DHT22;57183;50.930;5.406;2023-04-01T07:24:25;9.50;99.90
69901;DHT22;57183;50.930;5.406;2023-04-01T07:26:56;9.60;99.90
69901;DHT22;57183;50.930;5.406;2023-04-01T07:29:22;9.60;99.90
69901;DHT22;57183;50.930;5.406;2023-04-01T07:37:58;9.60;99.90
69901;DHT22;57183;50.930;5.406;2023-04-01T07:40:52;9.60;99.90
69901;DHT22;57183;50.930;5.406;2023-04-01T07:54:29;9.70;99.90
69901;DHT22;57183;50.930;5.406;2023-04-01T08:02:36;9.50;99.90
69901;DHT22;57183;50.930;5.406;2023-04-01T08:05:19;9.50;99.90
69901;DHT22;57183;50.930;5.406;2023-04-01T08:08:11;9.50;99.90
69901;DHT22;57183;50.930;5.406;2023-04-01T08:10:52;9.50;99.90
69901;DHT22;57183;50.930;5.406;2023-04-01T08:15:55;9.50;99.90
69901;DHT22;57183;50.930;5.406;2023-04-01T08:21:27;9.60;99.90
69901;DHT22;57183;50.930;5.406;2023-04-01T08:23:57;9.60;99.90
69901;DHT22;57183;50.930;5.406;2023-04-01T08:26:37;9.50;99.90
69901;DHT22;57183;50.930;5.406;2023-04-01T08:29:17;9.60;99.90
69901;DHT22;57183;50.930;5.406;2023-04-01T08:32:00;9.50;99.90
69901;DHT22;57183;50.930;5.406;2023-04-01T08:34:33;9.60;99.90
69901;DHT22;57183;50.930;5.406;2023-04-01T08:37:20;9.50;99.90
69901;DHT22;57183;50.930;5.406;2023-04-01T08:39:51;9.50;99.90
69901;DHT22;57183;50.930;5.406;2023-04-01T08:45:41;9.60;99.90
69901;DHT22;57183;50.930;5.406;2023-04-01T08:52:13;9.70;99.90
69901;DHT22;57183;50.930;5.406;2023-04-01T09:11:58;10.00;99.90
69901;DHT22;57183;50.930;5.406;2023-04-01T09:17:47;9.90;99.90
69901;DHT22;57183;50.930;5.406;2023-04-01T09:26:08;10.00;99.90
69901;DHT22;57183;50.930;5.406;2023-04-01T09:29:08;10.00;99.90
69901;DHT22;57183;50.930;5.406;2023-04-01T09:34:40;10.00;99.90
69901;DHT22;57183;50.930;5.406;2023-04-01T09:55:28;10.30;99.90
69901;DHT22;57183;50.930;5.406;2023-04-01T10:00:10;10.30;99.90
69901;DHT22;57183;50.930;5.406;2023-04-01T10:08:16;10.40;99.90
69901;DHT22;57183;50.930;5.406;2023-04-01T10:19:39;10.20;99.90
69901;DHT22;57183;50.930;5.406;2023-04-01T10:21:59;10.30;99.90
69901;DHT22;57183;50.930;5.406;2023-04-01T10:25:01;10.40;99.90
69901;DHT22;57183;50.930;5.406;2023-04-01T11:03:21;10.40;99.90
69901;DHT22;57183;50.930;5.406;2023-04-01T11:06:09;10.30;99.90
69901;DHT22;57183;50.930;5.406;2023-04-01T11:17:30;10.20;99.90
69901;DHT22;57183;50.930;5.406;2023-04-01T11:28:04;10.40;99.90
69901;DHT22;57183;50.930;5.406;2023-04-01T11:43:46;10.40;99.90
69901;DHT22;57183;50.930;5.406;2023-04-01T11:46:20;10.40;99.90
69901;DHT22;57183;50.930;5.406;2023-04-01T11:52:05;10.60;99.90
69901;DHT22;57183;50.930;5.406;2023-04-01T12:05:52;10.60;99.90
69901;DHT22;57183;50.930;5.406;2023-04-01T12:08:47;10.60;99.90
69901;DHT22;57183;50.930;5.406;2023-04-01T12:24:49;10.70;99.90
69901;DHT22;57183;50.930;5.406;2023-04-01T12:27:23;10.80;99.90
69901;DHT22;57183;50.930;5.406;2023-04-01T12:32:50;11.00;99.90
69901;DHT22;57183;50.930;5.406;2023-04-01T12:35:25;10.90;99.90
69901;DHT22;57183;50.930;5.406;2023-04-01T12:40:46;10.80;99.90
69901;DHT22;57183;50.930;5.406;2023-04-01T12:46:48;10.60;99.90
69901;DHT22;57183;50.930;5.406;2023-04-01T12:49:42;10.60;99.90
69901;DHT22;57183;50.930;5.406;2023-04-01T12:52:30;10.60;99.90
69901;DHT22;57183;50.930;5.406;2023-04-01T12:55:13;10.60;99.90
69901;DHT22;57183;50.930;5.406;2023-04-01T12:57:57;10.70;99.90
69901;DHT22;57183;50.930;5.406;2023-04-01T13:06:44;10.70;99.90
69901;DHT22;57183;50.930;5.406;2023-04-01T13:23:14;11.40;99.90
69901;DHT22;57183;50.930;5.406;2023-04-01T13:25:52;11.40;99.90
69901;DHT22;57183;50.930;5.406;2023-04-01T13:28:26;11.30;99.90
69901;DHT22;57183;50.930;5.406;2023-04-01T13:31:01;11.30;99.90
69901;DHT22;57183;50.930;5.406;2023-04-01T13:36:19;11.10;99.90
69901;DHT22;57183;50.930;5.406;2023-04-01T13:39:11;11.00;99.90
69901;DHT22;57183;50.930;5.406;2023-04-01T13:58:13;10.60;99.90
69901;DHT22;57183;50.930;5.406;2023-04-01T14:09:11;10.30;99.90
69901;DHT22;57183;50.930;5.406;2023-04-01T14:12:09;10.40;99.90
69901;DHT22;57183;50.930;5.406;2023-04-01T14:28:59;10.70;99.90
69901;DHT22;57183;50.930;5.406;2023-04-01T14:47:58;10.30;99.90
69901;DHT22;57183;50.930;5.406;2023-04-01T14:50:27;10.40;99.90
69901;DHT22;57183;50.930;5.406;2023-04-01T14:53:23;10.50;99.90
69901;DHT22;57183;50.930;5.406;2023-04-01T14:55:59;10.60;99.90
69901;DHT22;57183;50.930;5.406;2023-04-01T14:58:49;10.50;99.90
69901;DHT22;57183;50.930;5.406;2023-04-01T15:01:40;10.40;99.90
69901;DHT22;57183;50.930;5.406;2023-04-01T15:09:46;10.40;99.90
69901;DHT22;57183;50.930;5.406;2023-04-01T15:12:29;10.50;99.90
69901;DHT22;57183;50.930;5.406;2023-04-01T15:17:45;10.50;99.90
69901;DHT22;57183;50.930;5.406;2023-04-01T15:20:25;10.50;99.90
69901;DHT22;57183;50.930;5.406;2023-04-01T15:36:05;10.30;99.90
69901;DHT22;57183;50.930;5.406;2023-04-01T15:43:51;10.50;99.90
69901;DHT22;57183;50.930;5.406;2023-04-01T15:49:23;10.50;99.90
69901;DHT22;57183;50.930;5.406;2023-04-01T15:54:32;10.70;99.90
69901;DHT22;57183;50.930;5.406;2023-04-01T15:57:09;10.80;99.90
69901;DHT22;57183;50.930;5.406;2023-04-01T16:02:46;11.00;99.90
69901;DHT22;57183;50.930;5.406;2023-04-01T16:05:42;10.90;99.90
69901;DHT22;57183;50.930;5.406;2023-04-01T16:08:45;10.80;99.90
69901;DHT22;57183;50.930;5.406;2023-04-01T16:13:59;10.70;99.90
69901;DHT22;57183;50.930;5.406;2023-04-01T16:24:38;10.40;99.90
69901;DHT22;57183;50.930;5.406;2023-04-01T16:30:00;10.40;99.90
69901;DHT22;57183;50.930;5.406;2023-04-01T16:32:34;10.40;99.90
69901;DHT22;57183;50.930;5.406;2023-04-01T16:35:16;10.40;99.90
69901;DHT22;57183;50.930;5.406;2023-04-01T16:37:47;10.30;99.90
69901;DHT22;57183;50.930;5.406;2023-04-01T16:40:44;10.30;99.90
69901;DHT22;57183;50.930;5.406;2023-04-01T16:51:19;10.30;99.90
69901;DHT22;57183;50.930;5.406;2023-04-01T16:54:02;10.20;99.90
69901;DHT22;57183;50.930;5.406;2023-04-01T16:56:39;10.10;99.90
69901;DHT22;57183;50.930;5.406;2023-04-01T17:07:16;9.80;99.90
69901;DHT22;57183;50.930;5.406;2023-04-01T17:21:09;9.80;99.90
69901;DHT22;57183;50.930;5.406;2023-04-01T17:23:42;9.80;99.90
69901;DHT22;57183;50.930;5.406;2023-04-01T17:34:55;9.70;99.90
69901;DHT22;57183;50.930;5.406;2023-04-01T17:40:40;9.70;99.90
69901;DHT22;57183;50.930;5.406;2023-04-01T17:45:57;9.60;99.90
69901;DHT22;57183;50.930;5.406;2023-04-01T17:51:18;9.50;99.90
69901;DHT22;57183;50.930;5.406;2023-04-01T17:59:38;9.50;99.90
69901;DHT22;57183;50.930;5.406;2023-04-01T18:08:14;9.40;99.90
69901;DHT22;57183;50.930;5.406;2023-04-01T18:11:05;9.40;99.90
69901;DHT22;57183;50.930;5.406;2023-04-01T18:22:09;9.50;99.90
69901;DHT22;57183;50.930;5.406;2023-04-01T18:30:30;9.40;99.90
69901;DHT22;57183;50.930;5.406;2023-04-01T18:32:52;9.50;99.90
69901;DHT22;57183;50.930;5.406;2023-04-01T18:38:33;9.50;99.90
69901;DHT22;57183;50.930;5.406;2023-04-01T18:50:00;9.40;99.90
69901;DHT22;57183;50.930;5.406;2023-04-01T18:52:36;9.40;99.90
69901;DHT22;57183;50.930;5.406;2023-04-01T18:57:47;9.40;99.90
69901;DHT22;57183;50.930;5.406;2023-04-01T19:03:11;9.40;99.90
69901;DHT22;57183;50.930;5.406;2023-04-01T19:05:38;9.40;99.90
69901;DHT22;57183;50.930;5.406;2023-04-01T19:08:27;9.40;99.90
69901;DHT22;57183;50.930;5.406;2023-04-01T19:21:46;9.40;99.90
69901;DHT22;57183;50.930;5.406;2023-04-01T19:37:28;9.40;99.90
69901;DHT22;57183;50.930;5.406;2023-04-01T19:43:08;9.40;99.90
69901;DHT22;57183;50.930;5.406;2023-04-01T19:57:23;9.40;99.90
69901;DHT22;57183;50.930;5.406;2023-04-01T19:59:28;9.50;99.90
69901;DHT22;57183;50.930;5.406;2023-04-01T20:04:49;9.60;99.90
69901;DHT22;57183;50.930;5.406;2023-04-01T20:07:23;9.60;99.90
69901;DHT22;57183;50.930;5.406;2023-04-01T20:10:10;9.70;99.90
69901;DHT22;57183;50.930;5.406;2023-04-01T20:12:53;9.70;99.90
69901;DHT22;57183;50.930;5.406;2023-04-01T20:18:00;9.60;99.90
69901;DHT22;57183;50.930;5.406;2023-04-01T20:20:28;9.60;99.90
69901;DHT22;57183;50.930;5.406;2023-04-01T20:23:17;9.60;99.90
69901;DHT22;57183;50.930;5.406;2023-04-01T20:25:59;9.60;99.90
69901;DHT22;57183;50.930;5.406;2023-04-01T20:34:22;9.70;99.90
69901;DHT22;57183;50.930;5.406;2023-04-01T20:37:07;9.70;99.90
69901;DHT22;57183;50.930;5.406;2023-04-01T20:50:53;9.80;99.90
69901;DHT22;57183;50.930;5.406;2023-04-01T20:53:36;9.90;99.90
69901;DHT22;57183;50.930;5.406;2023-04-01T20:56:34;10.10;99.90
69901;DHT22;57183;50.930;5.406;2023-04-01T21:05:27;10.10;99.90
69901;DHT22;57183;50.930;5.406;2023-04-01T21:07:58;10.30;99.90
69901;DHT22;57183;50.930;5.406;2023-04-01T21:15:38;10.10;99.90
69901;DHT22;57183;50.930;5.406;2023-04-01T21:18:28;10.10;99.90
69901;DHT22;57183;50.930;5.406;2023-04-01T21:21:26;10.00;99.90
69901;DHT22;57183;50.930;5.406;2023-04-01T21:24:33;10.10;99.90
69901;DHT22;57183;50.930;5.406;2023-04-01T21:30:19;10.40;99.90
69901;DHT22;57183;50.930;5.406;2023-04-01T22:14:06;10.00;99.90
69901;DHT22;57183;50.930;5.406;2023-04-01T22:25:14;9.70;99.90
69901;DHT22;57183;50.930;5.406;2023-04-01T22:30:39;9.70;99.90
69901;DHT22;57183;50.930;5.406;2023-04-01T22:38:44;9.70;99.90
69901;DHT22;57183;50.930;5.406;2023-04-01T22:43:54;9.60;99.90
69901;DHT22;57183;50.930;5.406;2023-04-01T22:49:26;9.60;99.90
69901;DHT22;57183;50.930;5.406;2023-04-01T22:51:57;9.50;99.90
69901;DHT22;57183;50.930;5.406;2023-04-01T22:54:32;9.60;99.90
69901;DHT22;57183;50.930;5.406;2023-04-01T23:02:37;9.70;99.90
69901;DHT22;57183;50.930;5.406;2023-04-01T23:05:08;9.50;99.90
69901;DHT22;57183;50.930;5.406;2023-04-01T23:13:18;9.30;99.90
69901;DHT22;57183;50.930;5.406;2023-04-01T23:15:45;9.40;99.90
69901;DHT22;57183;50.930;5.406;2023-04-01T23:18:36;9.50;99.90
69901;DHT22;57183;50.930;5.406;2023-04-01T23:21:26;9.50;99.90
69901;DHT22;57183;50.930;5.406;2023-04-01T23:24:25;9.30;99.90
69901;DHT22;57183;50.930;5.406;2023-04-01T23:27:19;9.30;99.90
69901;DHT22;57183;50.930;5.406;2023-04-01T23:29:46;9.40;99.90
69901;DHT22;57183;50.930;5.406;2023-04-01T23:32:23;9.50;99.90
69901;DHT22;57183;50.930;5.406;2023-04-01T23:34:56;9.40;99.90
69901;DHT22;57183;50.930;5.406;2023-04-01T23:37:24;9.30;99.90
69901;DHT22;57183;50.930;5.406;2023-04-01T23:39:58;9.10;99.90
69901;DHT22;57183;50.930;5.406;2023-04-01T23:42:25;9.10;99.90
69901;DHT22;57183;50.930;5.406;2023-04-01T23:44:53;9.10;99.90
69901;DHT22;57183;50.930;5.406;2023-04-01T23:47:23;9.20;99.90
69901;DHT22;57183;50.930;5.406;2023-04-01T23:50:11;9.20;99.90
69901;DHT22;57183;50.930;5.406;2023-04-01T23:53:16;9.30;99.90
69901;DHT22;57183;50.930;5.406;2023-04-01T23:55:43;9.20;99.90
